TISX/STX METAR and TAF weather

Enter ICAO airport designator
Station Type Date Time Source
TISX METAR 2019/02/18 03:53 UTC NOAA

TISX 180353Z AUTO 05005KT 10SM CLR 24/22 A3013 RMK AO2 SLP200 T02390222 403060233 PWINO PNO $


Station Type Date Time Source
TISX Decoded METAR 2019/02/18 03:53 UTC NOAA

Christiansted, Henry E. Rohlsen Airport, Virgin Islands (TISX) 17-42N 064-48W 17M
Feb 17, 2019 - 10:53 PM EST / 2019.02.18 0353 UTC
Wind: from the NE (050 degrees) at 6 MPH (5 KT):0
Visibility: 10 mile(s):0
Sky conditions: clear
Temperature: 75.0 F (23.9 C)
Dew Point: 72.0 F (22.2 C)
Relative Humidity: 90%
Pressure (altimeter): 30.13 in. Hg (1020 hPa)
ob: TISX 180353Z AUTO 05005KT 10SM CLR 24/22 A3013 RMK AO2 SLP200 T02390222 403060233 PWINO PNO
cycle: 4

Station Type Date Time Source
TISX TAF 2019/02/17 18:24 UTC NOAA

TAF TISX 171720Z 1718/1818 12014KT P6SM FEW035
FM172300 05005KT P6SM SCT030
FM181430 09014KT P6SM FEW035


Example: see airport list